createdAt,value
2022-09-23T00:01:32.912Z,6.92
2022-09-23T00:03:38.418Z,6.97
2022-09-23T00:05:41.953Z,6.80
2022-09-23T00:07:46.020Z,6.69
2022-09-23T00:09:49.217Z,6.79
2022-09-23T00:11:52.475Z,6.85
2022-09-23T00:14:00.998Z,6.89
2022-09-23T00:16:11.235Z,6.87
2022-09-23T00:18:20.345Z,6.73
2022-09-23T00:20:29.945Z,6.70
2022-09-23T00:22:41.903Z,6.75
2022-09-23T00:24:45.572Z,6.71
2022-09-23T00:26:55.106Z,6.73
2022-09-23T00:28:58.743Z,6.74
2022-09-23T00:31:14.842Z,6.89
2022-09-23T00:33:21.553Z,6.84
2022-09-23T00:35:24.679Z,6.82
2022-09-23T00:37:32.221Z,6.91
2022-09-23T00:39:35.740Z,6.60
2022-09-23T00:41:38.860Z,6.60
2022-09-23T00:43:57.883Z,6.56
2022-09-23T00:46:02.124Z,6.32
2022-09-23T00:48:07.179Z,6.43
2022-09-23T00:50:40.595Z,6.17
2022-09-23T00:52:48.534Z,6.08
2022-09-23T00:54:54.970Z,6.09
2022-09-23T00:56:59.527Z,6.03
2022-09-23T00:59:07.157Z,5.96
2022-09-23T01:01:14.827Z,6.11
2022-09-23T01:03:18.066Z,5.82
2022-09-23T01:05:22.722Z,6.10
2022-09-23T01:07:26.092Z,6.26
2022-09-23T01:09:32.373Z,6.11
2022-09-23T01:11:47.273Z,6.30
2022-09-23T01:14:32.753Z,6.02
2022-09-23T01:16:57.849Z,6.15
2022-09-23T01:19:37.118Z,6.08
2022-09-23T01:21:48.608Z,5.77
2022-09-23T01:24:06.628Z,5.89
2022-09-23T01:26:46.445Z,5.83
2022-09-23T01:29:28.903Z,5.87
2022-09-23T01:31:44.438Z,6.03
2022-09-23T01:34:05.517Z,5.94
2022-09-23T01:36:35.141Z,5.87
2022-09-23T01:39:06.518Z,5.76
2022-09-23T01:41:30.984Z,5.79
2022-09-23T01:43:53.552Z,5.74
2022-09-23T01:46:00.578Z,5.71
2022-09-23T01:48:20.999Z,5.39
2022-09-23T01:50:44.324Z,5.33
2022-09-23T01:52:49.110Z,5.27
2022-09-23T01:55:23.205Z,5.06
2022-09-23T01:58:11.192Z,5.00
2022-09-23T02:03:04.087Z,4.89
2022-09-23T02:05:32.721Z,4.82
2022-09-23T02:08:23.888Z,4.70
2022-09-23T02:10:37.493Z,4.46
2022-09-23T02:12:51.298Z,4.77
2022-09-23T02:15:09.425Z,4.58
2022-09-23T02:17:19.582Z,4.75
2022-09-23T02:19:34.218Z,5.19
2022-09-23T02:21:44.435Z,5.08
2022-09-23T02:23:58.673Z,5.29
2022-09-23T02:26:33.130Z,5.28
2022-09-23T02:29:18.231Z,5.34
2022-09-23T02:31:56.301Z,5.36
2022-09-23T02:34:50.237Z,5.24
2022-09-23T02:37:24.090Z,5.16
2022-09-23T02:39:51.655Z,5.23
2022-09-23T02:42:14.268Z,5.25
2022-09-23T02:44:24.431Z,5.12
2022-09-23T02:46:29.517Z,5.03
2022-09-23T02:48:53.904Z,4.94
2022-09-23T02:50:58.531Z,5.15
2022-09-23T02:53:04.645Z,4.75
2022-09-23T02:55:10.989Z,4.58
2022-09-23T02:57:16.708Z,4.58
2022-09-23T02:59:34.293Z,4.58
2022-09-23T03:02:19.158Z,4.86
2022-09-23T03:05:10.581Z,4.90
2022-09-23T03:08:12.935Z,4.55
2022-09-23T03:10:45.793Z,4.49
2022-09-23T03:13:26.111Z,4.57
2022-09-23T03:16:08.975Z,4.57
2022-09-23T03:18:26.370Z,4.35
2022-09-23T03:21:02.359Z,4.54
2022-09-23T03:23:12.574Z,4.15
2022-09-23T03:25:25.274Z,4.03
2022-09-23T03:27:32.165Z,3.93
2022-09-23T03:29:36.910Z,4.00
2022-09-23T03:31:45.092Z,4.12
2022-09-23T03:33:59.052Z,4.23
2022-09-23T03:36:10.610Z,4.39
2022-09-23T03:38:23.837Z,4.19
2022-09-23T03:40:44.256Z,4.20
2022-09-23T03:42:52.864Z,4.13
2022-09-23T03:44:58.569Z,4.14
2022-09-23T03:47:06.788Z,4.43
2022-09-23T03:49:34.515Z,4.35
2022-09-23T03:51:44.501Z,4.26
2022-09-23T03:53:48.601Z,4.24
2022-09-23T03:55:52.479Z,4.26
2022-09-23T03:58:03.469Z,4.45
2022-09-23T04:00:08.692Z,4.40
2022-09-23T04:02:15.835Z,4.57
2022-09-23T04:04:23.443Z,4.72
2022-09-23T04:06:31.696Z,4.50
2022-09-23T04:08:37.825Z,4.53
2022-09-23T04:10:43.505Z,4.47
2022-09-23T04:13:01.895Z,4.68
2022-09-23T04:15:13.716Z,5.03
2022-09-23T04:17:20.643Z,4.77
2022-09-23T04:19:24.261Z,4.75
2022-09-23T04:21:27.933Z,4.92
2022-09-23T04:23:34.361Z,4.94
2022-09-23T04:25:37.339Z,4.79
2022-09-23T04:27:39.904Z,4.86
2022-09-23T04:29:42.900Z,4.75
2022-09-23T04:31:45.580Z,4.75
2022-09-23T04:33:48.058Z,4.71
2022-09-23T04:35:56.354Z,4.74
2022-09-23T04:37:58.463Z,4.66
2022-09-23T04:40:00.734Z,4.80
2022-09-23T04:42:03.396Z,4.51
2022-09-23T04:44:05.713Z,4.40
2022-09-23T04:46:11.603Z,4.27
2022-09-23T04:48:14.108Z,4.33
2022-09-23T04:50:16.598Z,4.30
2022-09-23T04:52:18.766Z,4.31
2022-09-23T04:54:21.455Z,4.45
2022-09-23T04:56:27.452Z,4.66
2022-09-23T04:58:29.963Z,4.89
2022-09-23T05:00:32.418Z,5.11
2022-09-23T05:02:34.507Z,5.67
2022-09-23T05:04:36.713Z,6.03
2022-09-23T05:06:39.594Z,6.47
2022-09-23T05:09:01.670Z,7.04
2022-09-23T05:50:04.411Z,15.70
2022-09-23T06:11:23.836Z,17.87
2022-09-23T06:13:33.647Z,17.94
2022-09-23T06:15:42.851Z,18.18
2022-09-23T06:17:57.477Z,18.50
2022-09-23T06:20:01.808Z,18.63
2022-09-23T06:22:10.624Z,18.90
2022-09-23T06:24:30.988Z,19.10
2022-09-23T06:37:20.661Z,20.26
2022-09-23T06:39:50.646Z,20.77
2022-09-23T06:41:53.436Z,20.84
2022-09-23T06:43:56.567Z,20.99
2022-09-23T06:46:02.595Z,20.95
2022-09-23T06:48:05.759Z,21.16
2022-09-23T06:50:10.009Z,21.47
2022-09-23T06:52:13.465Z,21.66
2022-09-23T06:54:16.023Z,21.70
2022-09-23T06:56:18.639Z,21.70
2022-09-23T06:58:21.559Z,21.67
2022-09-23T07:00:25.084Z,21.66
2022-09-23T07:02:27.799Z,21.63
2022-09-23T07:04:30.928Z,21.51
2022-09-23T07:06:33.183Z,21.36
2022-09-23T07:08:36.134Z,21.10
2022-09-23T07:10:38.945Z,21.03
2022-09-23T07:12:41.544Z,20.82
2022-09-23T07:14:43.696Z,20.78
2022-09-23T07:16:49.574Z,20.58
2022-09-23T07:18:51.827Z,20.37
2022-09-23T07:20:54.693Z,20.38
2022-09-23T07:22:57.173Z,20.34
2022-09-23T07:24:59.471Z,20.18
2022-09-23T07:27:02.466Z,20.03
2022-09-23T07:29:05.414Z,20.08
2022-09-23T07:31:12.481Z,19.86
2022-09-23T07:33:27.919Z,19.80
2022-09-23T07:35:34.364Z,19.55
2022-09-23T07:37:36.660Z,19.52
2022-09-23T07:39:38.991Z,19.40
2022-09-23T07:41:42.245Z,19.25
2022-09-23T07:43:45.804Z,19.09
2022-09-23T07:45:47.940Z,19.05
2022-09-23T07:47:50.984Z,19.11
2022-09-23T07:49:53.427Z,19.15
2022-09-23T07:51:55.792Z,19.18
2022-09-23T07:53:58.474Z,19.15
2022-09-23T07:56:00.690Z,19.05
2022-09-23T07:58:03.159Z,19.05
2022-09-23T08:00:06.609Z,19.12
2022-09-23T08:02:14.071Z,19.01
2022-09-23T08:04:29.834Z,19.02
2022-09-23T08:06:33.176Z,18.81
2022-09-23T08:08:36.615Z,18.87
2022-09-23T08:10:39.018Z,18.84
2022-09-23T08:12:42.089Z,18.96
2022-09-23T08:14:45.222Z,19.22
2022-09-23T08:16:47.703Z,18.99
2022-09-23T08:18:50.715Z,19.03
2022-09-23T08:20:53.937Z,18.87
2022-09-23T08:22:56.818Z,18.82
2022-09-23T08:25:02.649Z,18.83
2022-09-23T08:27:07.510Z,18.99
2022-09-23T08:29:17.106Z,18.85
2022-09-23T08:31:24.085Z,18.87
2022-09-23T08:33:28.352Z,18.67
2022-09-23T08:35:31.087Z,18.47
2022-09-23T08:37:52.245Z,18.50
2022-09-23T08:40:10.127Z,18.58
2022-09-23T08:42:53.000Z,18.38
2022-09-23T08:45:06.895Z,18.36
2022-09-23T08:47:29.833Z,18.47
2022-09-23T08:49:55.529Z,18.36
2022-09-23T08:52:37.380Z,18.30
2022-09-23T08:54:54.580Z,18.32
2022-09-23T08:57:03.109Z,18.33
2022-09-23T08:59:25.586Z,18.55
2022-09-23T09:01:49.125Z,18.29
2022-09-23T09:03:59.327Z,18.15
2022-09-23T09:06:20.087Z,18.29
2022-09-23T09:08:32.528Z,18.25
2022-09-23T09:10:51.132Z,18.27
2022-09-23T09:13:09.574Z,18.30
2022-09-23T09:15:24.337Z,18.58
2022-09-23T09:17:39.957Z,18.32
2022-09-23T09:19:58.013Z,18.51
2022-09-23T09:22:05.216Z,18.49
2022-09-23T09:24:22.961Z,18.42
2022-09-23T09:26:33.846Z,18.53
2022-09-23T09:28:51.787Z,18.46
2022-09-23T09:31:01.745Z,18.53
2022-09-23T09:36:18.378Z,18.58
2022-09-23T09:38:33.270Z,18.80
2022-09-23T09:40:48.493Z,18.63
2022-09-23T09:42:54.567Z,18.77
2022-09-23T09:45:15.910Z,18.80
2022-09-23T09:48:09.319Z,19.03
2022-09-23T09:50:50.612Z,19.16
2022-09-23T09:53:23.639Z,18.93
2022-09-23T09:55:41.674Z,19.05
2022-09-23T09:58:06.957Z,19.33
2022-09-23T10:00:29.169Z,19.34
2022-09-23T10:02:40.497Z,19.18
2022-09-23T10:04:45.879Z,19.33
2022-09-23T10:07:16.105Z,19.25
2022-09-23T10:09:22.113Z,19.26
2022-09-23T10:11:28.871Z,19.30
2022-09-23T10:13:32.392Z,19.26
2022-09-23T10:15:46.322Z,19.54
2022-09-23T10:17:52.091Z,19.44
2022-09-23T10:20:07.509Z,19.60
2022-09-23T10:22:27.071Z,19.74
2022-09-23T10:24:32.878Z,19.76
2022-09-23T10:27:00.472Z,19.84
2022-09-23T10:29:54.395Z,20.23
2022-09-23T10:32:42.367Z,20.13
2022-09-23T10:35:03.484Z,20.07
2022-09-23T10:37:20.962Z,20.01
2022-09-23T10:39:49.098Z,20.30
2022-09-23T10:42:23.828Z,20.07
2022-09-23T10:45:16.551Z,20.03
2022-09-23T10:47:52.791Z,20.40
2022-09-23T10:50:42.227Z,20.62
2022-09-23T10:53:23.854Z,20.81
2022-09-23T10:56:11.323Z,20.86
2022-09-23T10:58:38.176Z,21.04
2022-09-23T11:01:12.921Z,20.65
2022-09-23T11:04:58.685Z,20.85
2022-09-23T11:28:36.921Z,19.88
2022-09-23T11:31:19.344Z,19.78
2022-09-23T11:34:00.425Z,19.79
2022-09-23T11:36:25.657Z,19.54
2022-09-23T11:38:50.805Z,19.07
2022-09-23T11:40:59.908Z,18.98
2022-09-23T11:43:22.387Z,18.61
2022-09-23T11:45:50.076Z,18.67
2022-09-23T11:48:19.467Z,18.47
2022-09-23T11:50:46.255Z,18.31
2022-09-23T11:53:14.578Z,18.35
2022-09-23T11:55:37.038Z,18.05
2022-09-23T11:58:25.596Z,18.02
2022-09-23T12:00:42.693Z,17.96
2022-09-23T12:03:42.794Z,18.15
2022-09-23T12:06:10.772Z,18.06
2022-09-23T12:08:33.477Z,18.31
2022-09-23T12:17:26.184Z,19.36
2022-09-23T12:20:18.963Z,19.35
2022-09-23T12:23:21.134Z,19.23
2022-09-23T12:25:46.314Z,19.04
2022-09-23T12:28:15.752Z,18.85
2022-09-23T12:30:40.449Z,19.05
2022-09-23T12:33:23.341Z,18.90
2022-09-23T12:35:52.472Z,19.11
2022-09-23T12:38:07.535Z,19.13
2022-09-23T12:40:49.148Z,19.44
2022-09-23T12:42:58.006Z,19.43
2022-09-23T12:45:37.984Z,19.42
2022-09-23T12:47:45.996Z,19.29
2022-09-23T12:50:17.107Z,19.74
2022-09-23T12:52:33.707Z,19.72
2022-09-23T13:01:46.240Z,20.34
2022-09-23T13:04:15.537Z,20.41
2022-09-23T13:07:00.595Z,20.60
2022-09-23T13:10:00.154Z,20.31
2022-09-23T13:59:31.745Z,19.67
2022-09-23T14:01:35.542Z,19.70
2022-09-23T14:03:40.673Z,19.56
2022-09-23T14:05:51.771Z,19.30
2022-09-23T14:07:58.165Z,19.26
2022-09-23T14:10:01.006Z,19.09
2022-09-23T14:12:07.629Z,19.14
2022-09-23T14:14:29.557Z,19.24
2022-09-23T14:16:41.588Z,19.09
2022-09-23T14:20:10.041Z,19.05
2022-09-23T14:22:11.713Z,19.06
2022-09-23T14:24:42.559Z,19.08
2022-09-23T14:28:01.263Z,19.15
2022-09-23T14:30:53.299Z,19.08
2022-09-23T14:33:06.726Z,18.96
2022-09-23T14:35:24.204Z,19.11
2022-09-23T14:37:38.443Z,19.03
2022-09-23T14:39:41.270Z,18.84
2022-09-23T14:41:45.852Z,18.70
2022-09-23T14:44:00.711Z,18.61
2022-09-23T14:46:03.486Z,18.73
2022-09-23T14:48:17.630Z,18.58
2022-09-23T14:50:24.966Z,18.64
2022-09-23T14:52:28.000Z,18.46
2022-09-23T14:54:40.373Z,18.59
2022-09-23T14:56:44.045Z,18.34
2022-09-23T14:58:54.677Z,18.41
2022-09-23T15:01:02.938Z,18.26
2022-09-23T15:03:15.468Z,18.09
2022-09-23T15:05:24.457Z,17.94
2022-09-23T15:07:27.030Z,17.77
2022-09-23T15:09:41.663Z,17.63
2022-09-23T15:11:44.832Z,17.63
2022-09-23T15:13:52.318Z,17.57
2022-09-23T15:15:56.709Z,17.53
2022-09-23T15:18:20.646Z,17.62
2022-09-23T15:20:27.516Z,17.58
2022-09-23T15:22:30.296Z,17.76
2022-09-23T15:24:41.532Z,17.70
2022-09-23T15:26:52.665Z,17.67
2022-09-23T15:28:56.979Z,17.57
2022-09-23T15:31:00.636Z,17.44
2022-09-23T15:33:03.695Z,17.34
2022-09-23T15:35:06.838Z,17.30
2022-09-23T15:37:11.906Z,17.09
2022-09-23T15:39:15.604Z,17.10
2022-09-23T15:41:19.118Z,17.05
2022-09-23T15:43:25.279Z,16.86
2022-09-23T15:45:44.960Z,16.68
2022-09-23T15:47:49.673Z,16.62
2022-09-23T15:49:52.617Z,16.63
2022-09-23T15:52:00.455Z,16.76
2022-09-23T17:03:04.095Z,11.87
2022-09-23T17:06:27.586Z,12.09
2022-09-23T17:08:54.010Z,11.91
2022-09-23T17:11:00.841Z,11.70
2022-09-23T17:13:03.797Z,11.86
2022-09-23T17:17:25.729Z,11.75
2022-09-23T17:19:28.980Z,11.79
2022-09-23T17:23:54.305Z,12.01
2022-09-23T17:26:05.245Z,11.97
2022-09-23T17:28:10.824Z,11.85
2022-09-23T17:30:13.617Z,12.05
2022-09-23T17:32:16.257Z,11.94
2022-09-23T17:34:19.856Z,11.99
2022-09-23T17:38:40.494Z,11.90
2022-09-23T17:43:12.385Z,11.84
2022-09-23T17:45:15.115Z,11.79
2022-09-23T17:47:18.324Z,11.79
2022-09-23T17:49:20.841Z,11.61
2022-09-23T17:51:24.692Z,11.63
2022-09-23T17:53:31.398Z,11.53
2022-09-23T17:55:33.648Z,11.28
2022-09-23T17:57:41.964Z,11.31
2022-09-23T17:59:45.907Z,11.34
2022-09-23T18:01:48.408Z,11.46
2022-09-23T18:03:58.347Z,11.64
2022-09-23T18:06:14.060Z,11.45
2022-09-23T18:08:16.613Z,11.22
2022-09-23T18:10:19.324Z,11.29
2022-09-23T18:12:22.364Z,11.18
2022-09-23T18:14:24.772Z,11.35
2022-09-23T18:16:37.463Z,11.03
2022-09-23T18:18:41.068Z,11.11
2022-09-23T18:20:43.987Z,11.09
2022-09-23T18:22:48.328Z,11.23
2022-09-23T18:24:53.260Z,11.13
2022-09-23T18:26:55.798Z,11.07
2022-09-23T18:28:59.817Z,11.13
2022-09-23T18:31:03.257Z,11.01
2022-09-23T18:33:05.698Z,11.06
2022-09-23T18:35:08.203Z,11.13
2022-09-23T18:37:15.680Z,11.06
2022-09-23T18:39:18.705Z,11.00
2022-09-23T18:41:21.949Z,11.07
2022-09-23T18:43:37.288Z,11.19
2022-09-23T18:45:41.950Z,11.13
2022-09-23T18:47:44.402Z,11.23
2022-09-23T18:49:47.093Z,11.22
2022-09-23T18:51:53.175Z,11.35
2022-09-23T18:54:00.778Z,11.38
2022-09-23T18:56:19.839Z,11.44
2022-09-23T18:58:22.201Z,11.41
2022-09-23T19:00:24.599Z,11.46
2022-09-23T19:02:29.836Z,11.26
2022-09-23T19:04:32.248Z,11.22
2022-09-23T19:06:39.377Z,11.23
2022-09-23T19:08:45.769Z,11.28
2022-09-23T19:11:06.111Z,11.25
2022-09-23T19:13:15.460Z,11.20
2022-09-23T19:15:47.173Z,11.17
2022-09-23T19:17:49.582Z,11.02
2022-09-23T19:20:20.744Z,10.97
2022-09-23T19:22:46.072Z,10.64
2022-09-23T19:25:13.085Z,10.71
2022-09-23T19:27:29.285Z,10.58
2022-09-23T19:29:31.954Z,10.56
2022-09-23T19:32:09.135Z,10.63
2022-09-23T19:34:26.573Z,10.46
2022-09-23T19:36:40.495Z,10.50
2022-09-23T19:38:47.442Z,10.53
2022-09-23T19:40:51.078Z,10.39
2022-09-23T19:42:53.802Z,10.33
2022-09-23T19:44:57.279Z,10.45
2022-09-23T19:47:00.126Z,10.24
2022-09-23T19:49:03.155Z,10.24
2022-09-23T19:51:08.918Z,10.35
2022-09-23T19:53:53.971Z,10.37
2022-09-23T19:56:19.494Z,10.16
2022-09-23T19:58:22.505Z,10.16
2022-09-23T20:00:24.865Z,10.22
2022-09-23T20:02:28.032Z,10.35
2022-09-23T20:04:34.298Z,10.29
2022-09-23T20:06:38.023Z,10.13
2022-09-23T20:08:42.313Z,10.07
2022-09-23T20:10:45.012Z,10.16
2022-09-23T20:12:47.807Z,10.13
2022-09-23T20:14:50.483Z,10.12
2022-09-23T20:16:52.751Z,10.12
2022-09-23T20:18:55.831Z,10.05
2022-09-23T20:20:58.783Z,10.07
2022-09-23T20:23:01.478Z,9.88
2022-09-23T20:25:05.497Z,9.84
2022-09-23T20:27:08.165Z,9.85
2022-09-23T20:29:10.978Z,9.77
2022-09-23T20:31:15.091Z,9.71
2022-09-23T20:33:20.665Z,9.65
2022-09-23T20:35:28.235Z,9.69
2022-09-23T20:37:30.713Z,9.64
2022-09-23T20:39:33.455Z,9.70
2022-09-23T20:41:37.155Z,9.66
2022-09-23T20:43:39.637Z,9.54
2022-09-23T20:45:50.524Z,9.52
2022-09-23T20:47:53.067Z,9.57
2022-09-23T20:49:55.684Z,9.67
2022-09-23T20:51:58.626Z,9.55
2022-09-23T20:54:01.481Z,9.53
2022-09-23T20:56:04.012Z,9.49
2022-09-23T20:58:08.493Z,9.33
2022-09-23T21:00:13.674Z,9.30
2022-09-23T21:02:16.242Z,9.29
2022-09-23T21:04:18.928Z,9.24
2022-09-23T21:06:21.202Z,9.20
2022-09-23T21:08:23.593Z,9.29
2022-09-23T21:10:26.488Z,9.14
2022-09-23T21:12:28.737Z,9.14
2022-09-23T21:14:31.074Z,9.25
2022-09-23T21:16:34.420Z,9.08
2022-09-23T21:18:39.174Z,9.12
2022-09-23T21:20:42.134Z,9.10
2022-09-23T21:22:45.060Z,9.16
2022-09-23T21:25:26.313Z,9.08
2022-09-23T21:27:09.807Z,9.25
2022-09-23T21:29:12.981Z,9.09
2022-09-23T21:31:22.268Z,9.11
2022-09-23T21:33:24.668Z,9.13
2022-09-23T21:35:27.308Z,9.16
2022-09-23T21:40:39.651Z,9.18
2022-09-23T21:42:41.809Z,9.14
2022-09-23T21:44:43.973Z,9.35
2022-09-23T21:46:47.239Z,9.23
2022-09-23T21:48:52.488Z,9.22
2022-09-23T21:51:06.563Z,9.25
2022-09-23T21:53:09.022Z,9.24
2022-09-23T21:55:10.994Z,9.30
2022-09-23T21:57:13.152Z,9.24
2022-09-23T21:59:15.986Z,9.28
2022-09-23T22:01:20.455Z,9.27
2022-09-23T22:03:23.448Z,9.13
2022-09-23T22:05:26.518Z,9.11
2022-09-23T22:07:28.586Z,9.18
2022-09-23T22:09:31.024Z,8.95
2022-09-23T22:11:33.700Z,8.86
2022-09-23T22:13:36.063Z,8.90
2022-09-23T22:16:04.180Z,9.04
2022-09-23T22:18:06.830Z,8.94
2022-09-23T22:20:09.415Z,8.93
2022-09-23T22:22:15.776Z,8.73
2022-09-23T22:24:19.280Z,8.62
2022-09-23T22:26:21.638Z,8.65
2022-09-23T22:28:23.844Z,8.71
2022-09-23T22:30:26.576Z,8.79
2022-09-23T22:32:28.868Z,8.73
2022-09-23T22:34:48.985Z,8.62
2022-09-23T22:36:51.941Z,8.65
2022-09-23T22:38:58.408Z,8.74
2022-09-23T22:41:01.727Z,8.54
2022-09-23T22:43:04.549Z,8.54
2022-09-23T22:45:07.848Z,8.56
2022-09-23T22:47:10.707Z,8.55
2022-09-23T22:49:14.262Z,8.36
2022-09-23T22:51:16.919Z,8.30
2022-09-23T22:53:19.251Z,8.40
2022-09-23T22:55:22.021Z,8.41
2022-09-23T22:57:24.369Z,8.47
2022-09-23T22:59:26.568Z,8.43
2022-09-23T23:01:30.582Z,8.29
2022-09-23T23:03:32.916Z,8.49
2022-09-23T23:05:35.278Z,8.27
2022-09-23T23:07:37.881Z,8.48
2022-09-23T23:09:40.176Z,8.47
2022-09-23T23:11:43.606Z,8.36
2022-09-23T23:13:46.125Z,8.31
2022-09-23T23:15:49.078Z,8.21
2022-09-23T23:17:52.906Z,8.14
2022-09-23T23:19:55.500Z,8.12
2022-09-23T23:21:57.814Z,8.04
2022-09-23T23:24:00.681Z,8.06
2022-09-23T23:26:31.085Z,7.95
2022-09-23T23:28:33.350Z,7.91
2022-09-23T23:30:35.683Z,7.99
2022-09-23T23:32:38.872Z,8.02
2022-09-23T23:34:41.074Z,7.85
2022-09-23T23:36:44.176Z,7.98
2022-09-23T23:38:49.464Z,7.71
2022-09-23T23:40:51.690Z,7.77
2022-09-23T23:42:53.951Z,7.70
2022-09-23T23:44:56.813Z,7.82
2022-09-23T23:46:58.964Z,7.86
2022-09-23T23:49:01.305Z,7.72
2022-09-23T23:51:06.762Z,7.76
2022-09-23T23:53:09.032Z,7.60
2022-09-23T23:55:11.190Z,7.53
2022-09-23T23:57:13.823Z,7.47
2022-09-23T23:59:15.945Z,7.52
